Tihvin, Russia
Current Conditions -  °F | °C
As of 4:00 AM on Sunday 26 Oct 2014 (Local Time) from ULLI Reporting Station
Clear Clear  
Wind Chill: 24°   Ceiling: Unl
Heat Index: 30°   Visibility: 6mi
Dew Point: 18°   Wind: 7mph
Humidity: 60%   Direction: 180°S
Pressure: 30.27"   Gusts: NA
Location:  59.64°N, 33.51°E
Report Text: ULLI 260100Z 18003MPS 150V210 CAVOK M01/M08 Q1025 28//////78190060 NOSIG
Loading
Personal Weather Stations






























Interactive Weather Map
Tropical Storm Tracking
New forecast layout! Learn more

10-Day Weather Forecast

Advertisements
Track Severe Weather on mobile